createdAt,value
2018-04-10T00:00:24.076Z,67.20
2018-04-10T00:02:51.575Z,65.60
2018-04-10T00:05:19.060Z,65.40
2018-04-10T00:07:47.313Z,65.20
2018-04-10T00:10:14.780Z,65.20
2018-04-10T00:12:43.036Z,64.50
2018-04-10T00:15:10.504Z,64.40
2018-04-10T00:17:37.997Z,64.80
2018-04-10T00:20:05.487Z,64.90
2018-04-10T00:22:32.980Z,65.60
2018-04-10T00:25:00.470Z,65.10
2018-04-10T00:27:27.977Z,64.90
2018-04-10T00:29:55.474Z,64.80
2018-04-10T00:32:23.729Z,65.20
2018-04-10T00:34:51.226Z,65.20
2018-04-10T00:37:18.691Z,65.70
2018-04-10T00:39:46.182Z,66.80
2018-04-10T00:42:13.667Z,67.10
2018-04-10T00:44:41.135Z,66.30
2018-04-10T00:47:09.396Z,68.50
2018-04-10T00:49:36.888Z,68.50
2018-04-10T00:52:05.155Z,70.30
2018-04-10T00:54:33.408Z,69.30
2018-04-10T00:57:00.941Z,69.30
2018-04-10T00:59:28.446Z,70.30
2018-04-10T01:01:56.745Z,69.70
2018-04-10T01:04:24.259Z,69.70
2018-04-10T01:06:51.729Z,68.20
2018-04-10T01:09:19.213Z,67.90
2018-04-10T01:11:47.460Z,68.00
2018-04-10T01:14:15.708Z,68.50
2018-04-10T01:16:43.211Z,68.50
2018-04-10T01:19:10.667Z,68.80
2018-04-10T01:21:38.916Z,69.70
2018-04-10T01:24:06.397Z,69.70
2018-04-10T01:26:33.853Z,68.60
2018-04-10T01:29:01.390Z,69.20
2018-04-10T01:31:28.874Z,68.00
2018-04-10T01:33:56.368Z,68.20
2018-04-10T01:36:23.826Z,68.30
2018-04-10T01:38:51.329Z,68.90
2018-04-10T01:41:18.840Z,70.60
2018-04-10T01:43:46.299Z,71.30
2018-04-10T01:46:13.841Z,73.00
2018-04-10T01:48:42.101Z,71.20
2018-04-10T01:51:09.603Z,71.20
2018-04-10T01:53:37.079Z,70.00
2018-04-10T01:56:04.559Z,70.30
2018-04-10T01:58:32.048Z,70.20
2018-04-10T02:01:00.328Z,71.00
2018-04-10T02:03:28.568Z,70.90
2018-04-10T02:05:56.056Z,70.90
2018-04-10T02:08:24.309Z,74.50
2018-04-10T02:10:51.773Z,74.50
2018-04-10T02:13:19.288Z,75.90
2018-04-10T02:15:46.736Z,76.50
2018-04-10T02:18:14.236Z,75.90
2018-04-10T02:20:41.725Z,75.80
2018-04-10T02:23:10.563Z,73.20
2018-04-10T02:25:38.076Z,73.20
2018-04-10T02:28:06.332Z,75.30
2018-04-10T02:30:33.821Z,75.30
2018-04-10T02:33:02.101Z,73.60
2018-04-10T02:35:29.600Z,73.60
2018-04-10T02:37:57.089Z,73.80
2018-04-10T02:40:24.583Z,73.40
2018-04-10T02:42:52.088Z,73.40
2018-04-10T02:45:19.599Z,74.70
2018-04-10T02:47:47.858Z,74.70
2018-04-10T02:50:16.117Z,74.30
2018-04-10T02:52:43.602Z,74.30
2018-04-10T02:55:11.839Z,76.80
2018-04-10T02:57:39.331Z,76.80
2018-04-10T03:00:06.789Z,78.80
2018-04-10T03:02:35.044Z,80.60
2018-04-10T03:05:02.509Z,80.50
2018-04-10T03:07:29.976Z,80.80
2018-04-10T03:09:58.248Z,81.90
2018-04-10T03:12:25.715Z,81.90
2018-04-10T03:14:53.984Z,81.90
2018-04-10T03:17:21.475Z,82.00
2018-04-10T03:19:48.977Z,82.20
2018-04-10T03:22:16.455Z,81.20
2018-04-10T03:24:43.969Z,78.30
2018-04-10T03:27:11.428Z,79.30
2018-04-10T03:29:38.921Z,80.20
2018-04-10T03:32:06.424Z,79.70
2018-04-10T03:34:33.913Z,78.50
2018-04-10T03:37:01.412Z,78.90
2018-04-10T03:39:29.691Z,79.80
2018-04-10T03:41:57.157Z,79.80
2018-04-10T03:44:25.433Z,82.40
2018-04-10T03:46:53.693Z,82.40
2018-04-10T03:49:21.960Z,83.20
2018-04-10T03:51:49.444Z,83.20
2018-04-10T03:54:17.685Z,83.70
2018-04-10T03:56:45.191Z,83.70
2018-04-10T03:59:12.664Z,83.70
2018-04-10T04:01:40.223Z,83.10
2018-04-10T04:04:07.711Z,81.80
2018-04-10T04:06:35.200Z,79.90
2018-04-10T04:09:02.733Z,78.50
2018-04-10T04:11:30.231Z,78.70
2018-04-10T04:13:58.480Z,79.80
2018-04-10T04:16:38.061Z,79.80
2018-04-10T04:19:18.228Z,80.00
2018-04-10T04:24:52.832Z,81.00
2018-04-10T04:27:20.345Z,80.40
2018-04-10T04:29:47.813Z,81.00
2018-04-10T04:32:15.284Z,85.90
2018-04-10T04:34:42.812Z,82.30
2018-04-10T04:37:10.292Z,83.60
2018-04-10T04:39:37.785Z,83.10
2018-04-10T04:42:05.279Z,84.20
2018-04-10T04:44:32.772Z,83.60
2018-04-10T04:47:00.236Z,84.20
2018-04-10T04:49:27.748Z,83.20
2018-04-10T04:51:55.992Z,84.30
2018-04-10T04:54:23.490Z,84.30
2018-04-10T04:56:50.975Z,84.40
2018-04-10T04:59:18.472Z,84.70
2018-04-10T05:01:45.986Z,85.30
2018-04-10T05:04:13.481Z,85.40
2018-04-10T05:06:40.973Z,84.90
2018-04-10T05:09:09.233Z,82.90
2018-04-10T05:11:36.756Z,82.80
2018-04-10T05:14:04.240Z,83.20
2018-04-10T05:16:31.740Z,82.50
2018-04-10T05:18:59.217Z,82.20
2018-04-10T05:21:26.723Z,83.50
2018-04-10T05:23:54.768Z,84.00
2018-04-10T05:26:22.315Z,84.40
2018-04-10T05:28:49.784Z,83.80
2018-04-10T05:31:17.300Z,83.40
2018-04-10T05:33:44.794Z,83.10
2018-04-10T05:36:12.275Z,83.20
2018-04-10T05:38:39.756Z,82.80
2018-04-10T05:41:08.028Z,83.60
2018-04-10T05:43:35.552Z,83.60
2018-04-10T05:46:03.024Z,83.50
2018-04-10T05:48:30.536Z,83.60
2018-04-10T05:50:58.044Z,83.30
2018-04-10T05:53:25.552Z,82.80
2018-04-10T05:55:53.051Z,82.90
2018-04-10T05:58:20.543Z,84.00
2018-04-10T06:00:48.016Z,83.60
2018-04-10T06:03:16.284Z,83.00
2018-04-10T06:05:43.788Z,83.00
2018-04-10T06:08:11.283Z,83.20
2018-04-10T06:10:38.749Z,82.90
2018-04-10T06:13:07.024Z,83.20
2018-04-10T06:15:34.500Z,83.20
2018-04-10T06:18:02.003Z,82.40
2018-04-10T06:20:29.472Z,82.20
2018-04-10T06:22:56.972Z,82.30
2018-04-10T06:25:25.244Z,82.00
2018-04-10T06:27:52.723Z,81.90
2018-04-10T06:30:20.975Z,81.10
2018-04-10T06:32:48.454Z,81.10
2018-04-10T06:35:16.716Z,79.20
2018-04-10T06:37:44.192Z,79.20
2018-04-10T06:40:12.444Z,67.50
2018-04-10T06:42:39.940Z,67.20
2018-04-10T06:45:07.456Z,63.10
2018-04-10T06:47:34.975Z,62.10
2018-04-10T06:50:03.164Z,58.50
2018-04-10T06:52:30.661Z,58.50
2018-04-10T06:54:58.132Z,57.90
2018-04-10T06:57:26.438Z,59.30
2018-04-10T06:59:53.897Z,59.10
2018-04-10T07:02:21.412Z,60.50
2018-04-10T07:04:48.883Z,55.90
2018-04-10T07:07:17.149Z,50.30
2018-04-10T07:09:44.611Z,50.30
2018-04-10T07:12:12.132Z,51.50
2018-04-10T07:14:39.622Z,51.40
2018-04-10T07:17:07.092Z,49.20
2018-04-10T07:19:35.362Z,47.40
2018-04-10T07:22:03.634Z,47.40
2018-04-10T07:24:31.129Z,47.50
2018-04-10T07:26:58.599Z,47.50
2018-04-10T07:29:26.113Z,46.90
2018-04-10T07:31:54.371Z,45.50
2018-04-10T07:34:21.891Z,45.50
2018-04-10T07:36:50.365Z,47.60
2018-04-10T07:39:17.858Z,46.10
2018-04-10T07:41:45.332Z,46.10
2018-04-10T07:44:12.821Z,45.30
2018-04-10T07:46:41.067Z,44.00
2018-04-10T07:49:08.556Z,44.00
2018-04-10T07:51:36.820Z,43.30
2018-04-10T07:54:05.816Z,44.00
2018-04-10T07:56:34.073Z,42.50
2018-04-10T07:59:01.544Z,42.50
2018-04-10T08:01:29.800Z,43.00
2018-04-10T08:03:57.296Z,42.80
2018-04-10T08:06:25.572Z,41.50
2018-04-10T08:08:53.817Z,41.00
2018-04-10T08:11:21.329Z,41.10
2018-04-10T08:13:48.810Z,41.50
2018-04-10T08:16:16.295Z,41.70
2018-04-10T08:18:43.785Z,42.20
2018-04-10T08:21:12.032Z,40.50
2018-04-10T08:23:39.516Z,40.50
2018-04-10T08:26:07.751Z,40.80
2018-04-10T08:28:35.284Z,40.60
2018-04-10T08:31:02.753Z,40.30
2018-04-10T08:33:30.239Z,40.50
2018-04-10T08:35:57.733Z,40.00
2018-04-10T08:38:26.001Z,41.70
2018-04-10T08:40:54.226Z,42.00
2018-04-10T08:43:21.716Z,41.70
2018-04-10T08:45:49.195Z,43.20
2018-04-10T08:48:17.447Z,42.30
2018-04-10T08:50:44.936Z,42.30
2018-04-10T08:53:13.213Z,42.90
2018-04-10T08:55:41.444Z,44.10
2018-04-10T08:58:08.920Z,43.90
2018-04-10T09:00:36.412Z,43.00
2018-04-10T09:03:03.876Z,42.10
2018-04-10T09:05:31.386Z,43.20
2018-04-10T09:07:58.924Z,43.50
2018-04-10T09:10:26.443Z,44.00
2018-04-10T09:12:54.673Z,43.10
2018-04-10T09:15:22.173Z,43.00
2018-04-10T09:17:50.422Z,44.20
2018-04-10T09:20:17.941Z,44.10
2018-04-10T09:22:45.424Z,43.60
2018-04-10T09:25:12.896Z,44.00
2018-04-10T09:27:40.419Z,44.70
2018-04-10T09:30:07.924Z,43.50
2018-04-10T09:32:35.377Z,43.10
2018-04-10T09:35:03.605Z,41.80
2018-04-10T09:37:31.107Z,41.80
2018-04-10T09:39:58.568Z,43.20
2018-04-10T09:42:26.076Z,44.90
2018-04-10T09:44:53.548Z,42.10
2018-04-10T09:47:21.052Z,40.10
2018-04-10T09:49:50.028Z,41.60
2018-04-10T09:52:17.522Z,41.60
2018-04-10T09:54:45.812Z,42.00
2018-04-10T09:57:14.085Z,42.60
2018-04-10T09:59:42.338Z,42.10
2018-04-10T10:02:09.904Z,42.10
2018-04-10T10:04:37.333Z,42.90
2018-04-10T10:07:04.850Z,41.50
2018-04-10T10:09:32.330Z,41.60
2018-04-10T10:11:59.851Z,41.90
2018-04-10T10:14:28.122Z,41.60
2018-04-10T10:16:55.650Z,41.40
2018-04-10T10:19:23.133Z,41.70
2018-04-10T10:21:51.413Z,42.10
2018-04-10T10:24:18.891Z,42.00
2018-04-10T10:26:46.387Z,42.10
2018-04-10T10:29:13.880Z,42.50
2018-04-10T10:31:41.394Z,42.40
2018-04-10T10:34:08.912Z,43.90
2018-04-10T10:36:37.150Z,43.20
2018-04-10T10:39:06.589Z,43.00
2018-04-10T10:41:34.081Z,42.50
2018-04-10T10:44:01.569Z,42.40
2018-04-10T10:46:29.081Z,42.00
2018-04-10T10:48:57.321Z,41.00
2018-04-10T10:51:26.341Z,41.60
2018-04-10T10:53:54.612Z,41.60
2018-04-10T10:56:22.872Z,41.40
2018-04-10T10:58:51.164Z,42.80
2018-04-10T11:01:18.642Z,42.80
2018-04-10T11:03:46.876Z,41.20
2018-04-10T11:06:15.148Z,41.10
2018-04-10T11:08:42.648Z,41.10
2018-04-10T11:11:10.898Z,40.60
2018-04-10T11:13:39.152Z,41.20
2018-04-10T11:16:06.682Z,41.10
2018-04-10T11:18:34.168Z,41.20
2018-04-10T11:21:01.641Z,42.60
2018-04-10T11:23:29.267Z,41.00
2018-04-10T11:25:56.725Z,41.10
2018-04-10T11:28:24.221Z,42.80
2018-04-10T11:30:53.204Z,41.60
2018-04-10T11:33:20.716Z,41.60
2018-04-10T11:35:48.207Z,41.20
2018-04-10T11:38:15.692Z,41.00
2018-04-10T11:40:43.171Z,40.90
2018-04-10T11:43:11.468Z,40.60
2018-04-10T11:45:39.698Z,39.80
2018-04-10T12:30:50.970Z,35.80
2018-04-10T12:33:18.470Z,35.80
2018-04-10T12:35:45.965Z,35.80
2018-04-10T12:38:13.453Z,34.30
2018-04-10T12:40:40.936Z,36.20
2018-04-10T12:43:08.455Z,34.40
2018-04-10T12:45:35.936Z,34.30
2018-04-10T12:48:03.464Z,34.80
2018-04-10T12:50:30.945Z,34.50
2018-04-10T12:52:58.480Z,34.20
2018-04-10T12:55:25.980Z,33.20
2018-04-10T12:57:53.484Z,33.60
2018-04-10T13:00:20.961Z,34.50
2018-04-10T13:02:48.480Z,32.40
2018-04-10T13:05:17.367Z,34.30
2018-04-10T13:07:45.635Z,34.80
2018-04-10T13:10:13.891Z,34.50
2018-04-10T13:12:41.381Z,34.30
2018-04-10T13:15:09.645Z,33.00
2018-04-10T13:17:37.112Z,33.00
2018-04-10T13:20:05.373Z,33.70
2018-04-10T13:22:32.848Z,33.70
2018-04-10T13:25:01.096Z,33.40
2018-04-10T13:27:28.597Z,33.20
2018-04-10T13:29:56.109Z,33.30
2018-04-10T13:32:23.617Z,33.60
2018-04-10T13:34:51.860Z,32.90
2018-04-10T13:37:20.114Z,31.90
2018-04-10T13:39:47.624Z,32.00
2018-04-10T13:42:15.749Z,31.00
2018-04-10T13:44:43.273Z,30.60
2018-04-10T13:47:10.744Z,31.20
2018-04-10T13:49:38.252Z,31.00
2018-04-10T13:52:06.566Z,31.50
2018-04-10T13:54:34.060Z,31.30
2018-04-10T13:57:01.605Z,31.80
2018-04-10T13:59:29.061Z,31.00
2018-04-10T14:01:56.569Z,30.90
2018-04-10T14:04:24.061Z,32.10
2018-04-10T14:06:51.567Z,32.60
2018-04-10T14:09:19.044Z,31.40
2018-04-10T14:11:47.314Z,31.40
2018-04-10T14:14:14.813Z,31.40
2018-04-10T14:16:42.284Z,31.40
2018-04-10T14:19:09.809Z,31.60
2018-04-10T14:21:37.288Z,32.70
2018-04-10T14:24:04.792Z,31.70
2018-04-10T14:26:32.265Z,30.80
2018-04-10T14:28:59.795Z,31.60
2018-04-10T14:31:27.265Z,31.90
2018-04-10T14:33:54.754Z,32.60
2018-04-10T14:36:22.984Z,33.10
2018-04-10T14:38:50.495Z,33.00
2018-04-10T14:41:18.744Z,33.20
2018-04-10T14:43:46.254Z,33.00
2018-04-10T14:46:13.743Z,33.10
2018-04-10T14:48:41.220Z,33.90
2018-04-10T14:51:08.704Z,36.40
2018-04-10T14:53:36.951Z,42.60
2018-04-10T14:56:04.462Z,42.60
2018-04-10T14:58:31.960Z,47.40
2018-04-10T15:00:59.472Z,48.90
2018-04-10T15:03:26.970Z,46.40
2018-04-10T15:05:54.489Z,61.40
2018-04-10T15:08:22.000Z,63.90
2018-04-10T15:10:49.519Z,70.10
2018-04-10T15:13:17.049Z,70.30
2018-04-10T15:15:44.581Z,73.50
2018-04-10T15:18:12.048Z,74.70
2018-04-10T15:20:39.575Z,74.50
2018-04-10T15:23:07.071Z,78.00
2018-04-10T15:25:34.570Z,76.30
2018-04-10T15:28:02.076Z,76.90
2018-04-10T15:30:29.552Z,77.70
2018-04-10T15:32:57.060Z,72.90
2018-04-10T15:35:24.559Z,74.20
2018-04-10T15:37:52.038Z,69.70
2018-04-10T15:40:20.288Z,73.30
2018-04-10T15:42:47.800Z,73.30
2018-04-10T15:45:15.293Z,72.30
2018-04-10T15:47:42.836Z,74.50
2018-04-10T15:50:10.324Z,75.30
2018-04-10T15:52:37.870Z,79.60
2018-04-10T15:55:05.348Z,79.20
2018-04-10T15:57:32.865Z,80.50
2018-04-10T16:00:00.468Z,80.20
2018-04-10T16:02:28.719Z,73.60
2018-04-10T16:04:56.208Z,73.40
2018-04-10T16:07:23.729Z,71.00
2018-04-10T16:09:51.253Z,69.20
2018-04-10T16:12:19.528Z,65.20
2018-04-10T16:14:47.792Z,64.00
2018-04-10T16:17:15.277Z,63.90
2018-04-10T16:19:43.568Z,58.30
2018-04-10T16:22:11.875Z,60.10
2018-04-10T16:24:39.332Z,60.10
2018-04-10T16:27:06.829Z,55.10
2018-04-10T16:29:35.100Z,60.30
2018-04-10T16:32:03.389Z,59.50
2018-04-10T16:34:31.633Z,61.70
2018-04-10T16:36:59.894Z,59.60
2018-04-10T16:39:27.384Z,59.80
2018-04-10T16:41:54.884Z,63.10
2018-04-10T16:44:22.388Z,61.90
2018-04-10T16:46:50.657Z,60.20
2018-04-10T16:49:18.161Z,60.20
2018-04-10T16:51:45.676Z,56.30
2018-04-10T16:54:13.183Z,53.90
2018-04-10T16:56:40.660Z,56.30
2018-04-10T16:59:08.149Z,58.30
2018-04-10T17:01:36.590Z,62.00
2018-04-10T17:04:04.100Z,64.00
2018-04-10T17:06:31.634Z,64.70
2018-04-10T17:08:59.135Z,63.20
2018-04-10T17:11:26.631Z,66.90
2018-04-10T17:13:54.116Z,67.80
2018-04-10T17:16:21.620Z,67.10
2018-04-10T17:18:49.877Z,67.50
2018-04-10T17:21:17.344Z,67.40
2018-04-10T17:23:45.608Z,67.70
2018-04-10T17:26:13.101Z,67.60
2018-04-10T17:28:40.589Z,67.00
2018-04-10T17:31:08.071Z,67.10
2018-04-10T17:33:35.596Z,68.10
2018-04-10T17:36:03.071Z,68.50
2018-04-10T17:38:30.556Z,67.20
2018-04-10T17:40:58.034Z,67.60
2018-04-10T17:43:25.532Z,66.80
2018-04-10T17:45:53.043Z,67.30
2018-04-10T17:48:20.516Z,66.40
2018-04-10T17:50:48.819Z,68.30
2018-04-10T17:53:16.291Z,68.40
2018-04-10T17:55:43.796Z,70.50
2018-04-10T17:58:11.252Z,69.40
2018-04-10T18:00:38.717Z,69.90
2018-04-10T18:03:06.998Z,70.60
2018-04-10T18:05:35.216Z,70.50
2018-04-10T18:08:02.760Z,70.50
2018-04-10T18:10:30.229Z,71.00
2018-04-10T18:12:57.730Z,72.10
2018-04-10T18:15:25.202Z,72.60
2018-04-10T18:17:53.477Z,74.60
2018-04-10T18:20:20.944Z,74.60
2018-04-10T18:22:49.202Z,73.90
2018-04-10T18:25:16.752Z,73.80
2018-04-10T18:27:44.224Z,74.00
2018-04-10T18:30:11.741Z,74.10
2018-04-10T18:32:39.220Z,74.20
2018-04-10T18:35:06.722Z,75.20
2018-04-10T18:37:34.975Z,78.60
2018-04-10T18:40:02.459Z,78.70
2018-04-10T18:42:30.729Z,82.80
2018-04-10T18:44:58.997Z,84.00
2018-04-10T18:47:27.256Z,85.40
2018-04-10T18:49:54.770Z,85.30
2018-04-10T18:52:22.255Z,85.40
2018-04-10T18:54:49.728Z,85.70
2018-04-10T18:57:17.229Z,85.20
2018-04-10T18:59:45.470Z,84.30
2018-04-10T19:02:13.052Z,84.30
2018-04-10T19:04:41.285Z,84.30
2018-04-10T19:07:08.776Z,84.30
2018-04-10T19:09:36.290Z,84.50
2018-04-10T19:12:04.540Z,84.10
2018-04-10T19:14:32.041Z,84.30
2018-04-10T19:16:59.548Z,85.20
2018-04-10T19:19:27.830Z,85.50
2018-04-10T19:21:56.099Z,86.60
2018-04-10T19:24:24.366Z,84.80
2018-04-10T19:26:51.823Z,84.80
2018-04-10T19:29:19.324Z,85.90
2018-04-10T19:31:46.843Z,86.30
2018-04-10T19:34:14.289Z,86.80
2018-04-10T19:36:41.801Z,87.10
2018-04-10T19:39:09.257Z,87.00
2018-04-10T19:41:36.784Z,86.80
2018-04-10T19:44:05.029Z,86.20
2018-04-10T19:46:32.512Z,86.20
2018-04-10T19:49:00.036Z,85.20
2018-04-10T19:51:27.500Z,86.30
2018-04-10T19:53:55.002Z,86.10
2018-04-10T19:56:23.226Z,86.90
2018-04-10T19:58:50.724Z,86.90
2018-04-10T20:01:19.028Z,87.40
2018-04-10T20:03:46.562Z,87.40
2018-04-10T20:06:14.880Z,87.80
2018-04-10T20:08:42.483Z,87.80
2018-04-10T20:11:10.073Z,87.40
2018-04-10T20:13:38.321Z,88.20
2018-04-10T20:16:05.895Z,88.20
2018-04-10T20:18:34.152Z,88.20
2018-04-10T20:21:01.687Z,88.20
2018-04-10T20:23:29.157Z,88.40
2018-04-10T20:25:56.672Z,88.60
2018-04-10T20:28:24.159Z,88.40
2018-04-10T20:30:51.673Z,88.10
2018-04-10T20:33:19.891Z,88.00
2018-04-10T20:35:47.376Z,87.90
2018-04-10T20:38:14.876Z,87.80
2018-04-10T20:40:43.133Z,87.90
2018-04-10T20:43:11.411Z,87.50
2018-04-10T20:45:39.657Z,87.70
2018-04-10T20:48:07.143Z,87.70
2018-04-10T20:50:35.414Z,87.80
2018-04-10T20:53:02.877Z,87.70
2018-04-10T20:55:30.429Z,87.80
2018-04-10T20:57:57.900Z,87.90
2018-04-10T21:00:26.155Z,87.70
2018-04-10T21:02:53.624Z,87.60
2018-04-10T21:05:21.119Z,87.60
2018-04-10T21:07:48.600Z,87.80
2018-04-10T21:10:16.056Z,87.30
2018-04-10T21:12:43.553Z,86.70
2018-04-10T21:15:11.037Z,85.90
2018-04-10T21:17:39.302Z,87.10
2018-04-10T21:20:06.793Z,87.10
2018-04-10T21:22:34.279Z,87.00
2018-04-10T21:25:01.752Z,87.40
2018-04-10T21:27:29.261Z,87.00
2018-04-10T21:29:56.782Z,86.90
2018-04-10T21:32:24.256Z,87.10
2018-04-10T21:34:52.540Z,87.10
2018-04-10T21:37:19.997Z,87.10
2018-04-10T21:39:47.518Z,87.20
2018-04-10T21:42:14.971Z,86.90
2018-04-10T21:44:42.458Z,87.10
2018-04-10T21:47:09.920Z,86.80
2018-04-10T21:49:37.432Z,86.60
2018-04-10T21:52:04.908Z,86.40
2018-04-10T21:54:32.363Z,87.00
2018-04-10T21:56:59.864Z,87.20
2018-04-10T21:59:28.129Z,86.30
2018-04-10T22:01:55.621Z,86.30
2018-04-10T22:04:23.664Z,86.70
2018-04-10T22:06:51.930Z,86.20
2018-04-10T22:09:19.411Z,86.20
2018-04-10T22:11:47.672Z,86.90
2018-04-10T22:14:15.921Z,87.10
2018-04-10T22:16:43.438Z,87.10
2018-04-10T22:19:10.924Z,86.70
2018-04-10T22:21:38.400Z,86.80
2018-04-10T22:24:05.869Z,86.90
2018-04-10T22:26:33.373Z,86.90
2018-04-10T22:29:00.827Z,86.40
2018-04-10T22:31:28.320Z,86.30
2018-04-10T22:33:55.787Z,86.70
2018-04-10T22:36:23.271Z,86.60
2018-04-10T22:38:50.738Z,86.70
2018-04-10T22:41:18.192Z,86.60
2018-04-10T22:43:45.686Z,86.60
2018-04-10T22:46:13.164Z,87.00
2018-04-10T22:48:40.660Z,86.80
2018-04-10T22:51:08.941Z,87.00
2018-04-10T22:53:37.196Z,86.50
2018-04-10T22:56:05.432Z,86.60
2018-04-10T22:58:32.931Z,86.60
2018-04-10T23:01:01.168Z,86.20
2018-04-10T23:03:28.741Z,86.20
2018-04-10T23:05:56.160Z,86.50
2018-04-10T23:08:23.661Z,86.60
2018-04-10T23:10:51.133Z,86.10
2018-04-10T23:13:18.648Z,86.20
2018-04-10T23:15:46.117Z,86.40
2018-04-10T23:18:13.632Z,86.30
2018-04-10T23:20:41.149Z,86.60
2018-04-10T23:23:08.622Z,86.50
2018-04-10T23:25:36.135Z,86.60
2018-04-10T23:28:04.385Z,86.60
2018-04-10T23:30:31.893Z,86.60
2018-04-10T23:32:59.353Z,86.70
2018-04-10T23:35:26.842Z,86.50
2018-04-10T23:37:54.302Z,86.70
2018-04-10T23:40:21.796Z,86.70
2018-04-10T23:42:49.272Z,86.60
2018-04-10T23:45:17.536Z,86.60
2018-04-10T23:47:45.768Z,86.80
2018-04-10T23:50:13.264Z,86.80
2018-04-10T23:52:40.769Z,86.80
2018-04-10T23:55:08.233Z,86.60
2018-04-10T23:57:35.721Z,86.40
